Αναφορές METAR

 

LGTS - Thessaloniki/Mik, Greece
Απόσταση από το σταθμό: ΝΝΔ 77km
Ενημερώθηκε: 23/10/2017 02:50
Διάσπαρτα Νέφη
Διάσπαρτα Νέφη
 Ανεμος από Α
Ανεμος: Α 7 km/h
Θερμοκρασία: 13°C
Σημείο Δρόσου: 9°C
Υγρασία: 77%
Βαρόμετρο: 1011 hPa
Νέφωση: Διάσπαρτα Νέφη
Ορατότητα: 10 km
Λεπτομέρειες νέφωσης: Διάσπαρτα Νέφη 610 m
2017/10/22 23:50 LGTS 222350Z 10004KT 9999 FEW020 13/09 Q1011 NOSIG
LGKV - Kavala/Chrisoupo, Greece
Απόσταση από το σταθμό: ΑΝΑ 120km
Ενημερώθηκε: 23/10/2017 02:50
Διάσπαρτα Νέφη
Διάσπαρτα Νέφη
 Ανεμος από ΒΑ
Ανεμος: ΒΑ 11 km/h
Θερμοκρασία: 14°C
Σημείο Δρόσου: 10°C
Υγρασία: 77%
Βαρόμετρο: 1011 hPa
Νέφωση: Διάσπαρτα Νέφη
Ορατότητα: 10 km
Λεπτομέρειες νέφωσης: Διάσπαρτα Νέφη 610 m
2017/10/22 23:50 LGKV 222350Z 04006KT 9999 FEW020 14/10 Q1011
 
LGKZ - Kozani (civ/Army, Greece
Απόσταση από το σταθμό: ΝΔ 154km
Ενημερώθηκε: 22/10/2017 20:50
ΜΗ ΠΡΟΣΦΑΤΟ METAR
Αίθριος
Αίθριος
 Ανεμος από calm
Ανεμος: Απνοια
Θερμοκρασία: 16°C
Σημείο Δρόσου: 4°C
Υγρασία: 45%
Βαρόμετρο: 1014 hPa
Summary: Αίθριος
Ορατότητα: greater than 10 km
2017/10/22 17:50 LGKZ 221750Z 00000KT CAVOK 16/04 Q1014
LWSK - Skopje/Petrovac, Macedonia
Απόσταση από το σταθμό: ΔΒΔ 159km
Ενημερώθηκε: 23/10/2017 03:00
Αίθριος
Αίθριος
 Ανεμος από calm
Ανεμος: Απνοια
Θερμοκρασία: 10°C
Σημείο Δρόσου: 7°C
Υγρασία: 82%
Βαρόμετρο: 1010 hPa
Summary: Αίθριος
Ορατότητα: greater than 10 km
2017/10/23 00:00 LWSK 230000Z 00000KT CAVOK 10/07 Q1010 NOSIG
 
LBSF - Sofia (observato, Bulgaria
Απόσταση από το σταθμό: Β 164km
Ενημερώθηκε: 23/10/2017 03:00
Αίθριος
Αίθριος
 Ανεμος από Α
Ανεμος: Α 31 km/h
Θερμοκρασία: 14°C
Σημείο Δρόσου: 8°C
Υγρασία: 67%
Βαρόμετρο: 1011 hPa
Summary: Αίθριος
Ορατότητα: greater than 10 km
2017/10/23 00:00 LBSF 230000Z 10017KT CAVOK 14/08 Q1011 NOSIG
LBPD - Plovdiv, Bulgaria
Απόσταση από το σταθμό: ΒΑ 168km
Ενημερώθηκε: 23/10/2017 03:00
Διάσπαρτα Νέφη
Διάσπαρτα Νέφη
 Ανεμος από Β
Ανεμος: Β 6 km/h
Θερμοκρασία: 9°C
Σημείο Δρόσου: 7°C
Υγρασία: 87%
Βαρόμετρο: 1012 hPa
Νέφωση: Διάσπαρτα Νέφη
Ορατότητα: 10 km
Λεπτομέρειες νέφωσης: Διάσπαρτα Νέφη 2987 m
2017/10/23 00:00 LBPD 230000Z AUTO 01003KT 340V060 9999 FEW098/// 09/07 Q1012
 
LWOH - Ohrid, Macedonia
Απόσταση από το σταθμό: Δ 204km
Ενημερώθηκε: 22/10/2017 20:30
ΜΗ ΠΡΟΣΦΑΤΟ METAR
Διάσπαρτα Νέφη
Διάσπαρτα Νέφη
 Ανεμος από calm
Ανεμος: Απνοια
Θερμοκρασία: 13°C
Σημείο Δρόσου: 8°C
Υγρασία: 72%
Βαρόμετρο: 1015 hPa
Νέφωση: Διάσπαρτα Νέφη
Ορατότητα: 10 km
Λεπτομέρειες νέφωσης: Διάσπαρτα Νέφη 1219 m
2017/10/22 17:30 LWOH 221730Z 00000KT 9999 FEW040 13/08 Q1015
LGLM - Limnos Island Ar, Greece
Απόσταση από το σταθμό: ΝΑ 220km
Ενημερώθηκε: 23/10/2017 02:50
Αίθριος
Αίθριος
 Ανεμος από calm
Ανεμος: Απνοια
Θερμοκρασία: 11°C
Σημείο Δρόσου: 10°C
Υγρασία: 94%
Βαρόμετρο: 1011 hPa
Summary: Αίθριος
Ορατότητα: greater than 10 km
2017/10/22 23:50 LGLM 222350Z 00000KT CAVOK 11/10 Q1011
 
LGBL - Nea Anchialos, Greece
Απόσταση από το σταθμό: Ν 221km
Ενημερώθηκε: 23/10/2017 02:50
Αίθριος
Αίθριος
 Ανεμος από calm
Ανεμος: Απνοια
Θερμοκρασία: 13°C
Σημείο Δρόσου: 11°C
Υγρασία: 88%
Βαρόμετρο: 1010 hPa
Summary: Αίθριος
Ορατότητα: greater than 10 km
2017/10/22 23:50 LGBL 222350Z 00000KT CAVOK 13/11 Q1010
LGSK - Skiathos Island, Greece
Απόσταση από το σταθμό: Ν 223km
Ενημερώθηκε: 22/10/2017 20:50
ΜΗ ΠΡΟΣΦΑΤΟ METAR
Αίθριος
Αίθριος
 Ανεμος από calm
Ανεμος: Απνοια
Θερμοκρασία: 18°C
Σημείο Δρόσου: 16°C
Υγρασία: 88%
Βαρόμετρο: 1012 hPa
Summary: Αίθριος
Ορατότητα: greater than 10 km
2017/10/22 17:50 LGSK 221750Z 00000KT CAVOK 18/16 Q1012
 
LGAL - Alexandroupolis, Greece
Απόσταση από το σταθμό: Α 231km
Ενημερώθηκε: 22/10/2017 22:20
ΜΗ ΠΡΟΣΦΑΤΟ METAR
Αίθριος
Αίθριος
 Ανεμος από ΒΒΑ
Ανεμος: ΒΒΑ 15 km/h
Θερμοκρασία: 14°C
Σημείο Δρόσου: 12°C
Υγρασία: 88%
Βαρόμετρο: 1014 hPa
Summary: Αίθριος
Ορατότητα: greater than 10 km
2017/10/22 19:20 LGAL 221920Z 03008KT CAVOK 14/12 Q1014
BKPR - Prishtina, Yugoslavia
Απόσταση από το σταθμό: ΒΔ 240km
Ενημερώθηκε: 23/10/2017 03:00
Ασθενής Βροχή, Κυρίως Νεφελώδης
Ασθενής Βροχή, Κυρίως Νεφελώδης
 Ανεμος από μεταβλητός
Ανεμος: μεταβλητός 6 km/h
Θερμοκρασία: 11°C
Σημείο Δρόσου: 7°C
Υγρασία: 77%
Βαρόμετρο: 1009 hPa
Summary: Ασθενής Βροχή
Νέφωση: Κυρίως Νεφελώδης
Ορατότητα: 10 km
Λεπτομέρειες νέφωσης: Διάσπαρτα Νέφη 1219 m
Κυρίως Νεφελώδης 2438 m
2017/10/23 00:00 BKPR 230000Z VRB03KT 9999 -RA FEW040 BKN080 11/07 Q1009 NOSIG
 
LGIO - Ioannina, Greece
Απόσταση από το σταθμό: ΝΔ 262km
Ενημερώθηκε: 22/10/2017 22:20
ΜΗ ΠΡΟΣΦΑΤΟ METAR
Διάσπαρτα Νέφη
Διάσπαρτα Νέφη
 Ανεμος από μεταβλητός
Ανεμος: μεταβλητός 0 km/h
Θερμοκρασία: 12°C
Σημείο Δρόσου: 11°C
Υγρασία: 94%
Βαρόμετρο: 1015 hPa
Νέφωση: Διάσπαρτα Νέφη
Ορατότητα: 10 km
Λεπτομέρειες νέφωσης: Διάσπαρτα Νέφη 914 m
2017/10/22 19:20 LGIO 221920Z /////KT 9999 FEW030 12/11 Q1015
LYNI - Nis, Yugoslavia
Απόσταση από το σταθμό: ΒΒΔ 262km
Ενημερώθηκε: 23/10/2017 03:00
Αίθριος
Αίθριος
 Ανεμος από Ν
Ανεμος: Ν 9 km/h
Θερμοκρασία: 10°C
Wind Chill: 9°C
Σημείο Δρόσου: 8°C
Υγρασία: 88%
Βαρόμετρο: 1008 hPa
Summary: Αίθριος
Ορατότητα: greater than 10 km
2017/10/23 00:00 LYNI 230000Z 18005KT 150V210 CAVOK 10/08 Q1008
 
LGSY - Skiros, Greece
Απόσταση από το σταθμό: ΝΝΑ 268km
Ενημερώθηκε: 23/10/2017 02:50
Αίθριος
Αίθριος
 Ανεμος από Ν
Ανεμος: Ν 20 km/h
Θερμοκρασία: 20°C
Σημείο Δρόσου: 10°C
Υγρασία: 53%
Βαρόμετρο: 1009 hPa
Summary: Αίθριος
Ορατότητα: greater than 10 km
2017/10/22 23:50 LGSY 222350Z 19011KT CAVOK 20/10 Q1009 BLU
LATI - Tirana, Albania
Απόσταση από το σταθμό: Δ 290km
Ενημερώθηκε: 23/10/2017 03:20
Κυρίως Νεφελώδης
Κυρίως Νεφελώδης
 Ανεμος από ΑΝΑ
Ανεμος: ΑΝΑ 15 km/h
Θερμοκρασία: 18°C
Σημείο Δρόσου: 12°C
Υγρασία: 68%
Βαρόμετρο: 1009 hPa
Νέφωση: Κυρίως Νεφελώδης
Ορατότητα: 10 km
Λεπτομέρειες νέφωσης: Διάσπαρτα Νέφη 1036 m
Κυρίως Νεφελώδης 1859 m
2017/10/23 00:20 LATI 230020Z 11008KT 9999 FEW034CB BKN061 18/12 Q1009 RERA NOSIG
 
LBGO - Gorna Orechovist, Bulgaria
Απόσταση από το σταθμό: ΒΑ 300km
Ενημερώθηκε: 23/10/2017 03:00
Αίθριος
Αίθριος
 Ανεμος από ΝΑ
Ανεμος: ΝΑ 6 km/h
Θερμοκρασία: 13°C
Σημείο Δρόσου: 8°C
Υγρασία: 72%
Βαρόμετρο: 1011 hPa
Νέφωση: Αίθριος
Ορατότητα: 10 km
2017/10/23 00:00 LBGO 230000Z AUTO 14003KT 9999 NCD 13/08 Q1011
LGPZ - Preveza/Aktion, Greece
Απόσταση από το σταθμό: ΝΔ 328km
Ενημερώθηκε: 23/10/2017 02:50
Μερικώς Νεφελώδης
Μερικώς Νεφελώδης
 Ανεμος από calm
Ανεμος: Απνοια
Θερμοκρασία: 15°C
Σημείο Δρόσου: 15°C
Υγρασία: 100%
Βαρόμετρο: 1013 hPa
Νέφωση: Μερικώς Νεφελώδης
Ορατότητα: 10 km
Λεπτομέρειες νέφωσης: Μερικώς Νεφελώδης 914 m
2017/10/22 23:50 LGPZ 222350Z 00000KT 9999 SCT030 15/15 Q1013
 
LGKR - Ioannis Kapodist, Greece
Απόσταση από το σταθμό: ΔΝΔ 330km
Ενημερώθηκε: 23/10/2017 02:50
Διάσπαρτα Νέφη
Διάσπαρτα Νέφη
 Ανεμος από calm
Ανεμος: Απνοια
Θερμοκρασία: 14°C
Σημείο Δρόσου: 12°C
Υγρασία: 88%
Βαρόμετρο: 1012 hPa
Νέφωση: Διάσπαρτα Νέφη
Ορατότητα: 10 km
Λεπτομέρειες νέφωσης: Διάσπαρτα Νέφη 610 m
2017/10/22 23:50 LGKR 222350Z 00000KT 9999 FEW020 14/12 Q1012 NOSIG
LGEL - Elefsis (hel-Afb, Greece
Απόσταση από το σταθμό: Ν 347km
Ενημερώθηκε: 23/10/2017 02:50
Αίθριος
Αίθριος
 Ανεμος από μεταβλητός
Ανεμος: μεταβλητός 6 km/h
Θερμοκρασία: 15°C
Σημείο Δρόσου: 12°C
Υγρασία: 82%
Βαρόμετρο: 1011 hPa
Summary: Αίθριος
Ορατότητα: greater than 10 km
2017/10/22 23:50 LGEL 222350Z VRB03KT CAVOK 15/12 Q1011


 ♦     ♦     ♦     Ποτέ μη βασίζετε κρίσιμες αποφάσεις σ'αυτές ή οποιεσδήποτε πληροφορίες καιρού από το Internet     ♦     ♦     ♦